Bear Town, Mississippi
Current Conditions -  °F | °C
As of 9:53 PM on Saturday 25 Oct 2014 (Local Time) from KMCB Reporting Station
Clear Clear  
Wind Chill: 62°   Ceiling: Unl
Heat Index: 62°   Visibility: 10mi
Dew Point: 56°   Wind: 3mph
Humidity: 80%   Direction: 330°NNW
Pressure: 30.11"   Gusts: NA
Location:  31.1693°N, 90.3678°W
Report Text: KMCB 260253Z AUTO 33003KT 10SM CLR 17/13 A3011 RMK AO2 SLP190 T01670133 51007
Loading
Personal Weather Stations






























Interactive Weather Map
Tropical Storm Tracking
New forecast layout! Learn more

10-Day Weather Forecast

Advertisements
Track Severe Weather on mobile